KAKO/AKO METAR and TAF weather

Enter ICAO airport designator
Station Type Date Time Source
KAKO METAR 2021/07/26 16:53 UTC NOAA

KAKO 261653Z AUTO VRB03KT 10SM CLR 29/11 A3012 RMK AO2 SLP139 T02890111 PWINO


Station Type Date Time Source
KAKO Decoded METAR 2021/07/26 16:53 UTC NOAA

COLORADO PLAINS REGIONAL, CO, United States (KAKO) 40-10N 103-13W 1421M
Jul 26, 2021 - 12:53 PM EDT / 2021.07.26 1653 UTC
Wind: Variable at 3 MPH (3 KT):0
Visibility: 10 mile(s):0
Sky conditions: clear
Temperature: 84.0 F (28.9 C)
Dew Point: 52.0 F (11.1 C)
Relative Humidity: 33%
Pressure (altimeter): 30.12 in. Hg (1019 hPa)
ob: KAKO 261653Z AUTO VRB03KT 10SM CLR 29/11 A3012 RMK AO2 SLP139 T02890111 PWINO
cycle: 17

Station Type Date Time Source
KAKO TAF UTC NOAA

Error!

Example: see airport list